aviador You're here:

KHSI Decoded Metar

HASTINGS in NE, USA
Report Time2018-06-24 21:53:00
UTC Time2018-06-24 22:44:04
Flight Rules vfr VFR
WindCalm
Visibility9999 m
Phenomena:N/A
Clouds:N/A
Expected CloudBase > 3,200 ft AGL from Temp-Dew spread
CeilingNone
Temp26°C (ISA +15)
Dew Point18°C (61% RH)
QNH1012 hPa
Density Alt3,963 ft
Elevation1,939 ft
Report Wrong Elevation
Raw Report
KHSI 242153Z AUTO 00000KT 10SM CLR 26/18 A2988 RMK AO2 SLP101
T02610178=

Extra information for KHSI:More info

Metar Taf Metar & Taf Last 4 Metars F.Rules Stats Wind Profile Meteogram Temp Stats Airport Information Weather charts Add Link Nearby VenuesMetar ALERT Operation Metar Decoded Social comments

AIRNAV info for KHSI